Time;durP1;ratioP1;P1;durP2;ratioP2;P2;SDS_P1;SDS_P2;PMS_P1;PMS_P2;Temp;Humidity;BMP_temperature;BMP_pressure;BME280_temperature;BME280_humidity;BME280_pressure;Samples;Min_cycle;Max_cycle;Signal;HPM_P1;HPM_P2
2021/03/09 00:01:47;;;;;;;25.00;14.13;;;76.90;1996.80;;;;;;5031035;28;20037;-59
2021/03/09 00:04:12;;;;;;;23.85;13.77;;;76.80;1996.80;;;;;;5039717;28;20101;-63
2021/03/09 00:06:38;;;;;;;25.50;14.20;;;76.80;2022.40;;;;;;5022359;28;20112;-60
2021/03/09 00:09:04;;;;;;;26.85;14.38;;;52.10;2022.40;;;;;;5035632;28;20029;-60
2021/03/09 00:11:30;;;;;;;25.23;14.40;;;52.10;2022.40;;;;;;5033481;28;20029;-59
2021/03/09 00:13:55;;;;;;;28.63;15.43;;;52.10;2022.40;;;;;;5033500;28;20044;-59
2021/03/09 00:16:21;;;;;;;26.40;14.80;;;52.10;2022.40;;;;;;5033421;28;20039;-60
2021/03/09 00:18:47;;;;;;;31.38;16.27;;;52.10;2022.40;;;;;;5033569;28;20018;-59
2021/03/09 00:21:13;;;;;;;37.05;19.17;;;52.00;2048.00;;;;;;5033163;28;20419;-59
2021/03/09 00:23:39;;;;;;;39.28;19.40;;;52.00;2048.00;;;;;;5034360;28;20049;-59
2021/03/09 00:26:04;;;;;;;30.92;18.40;;;52.00;2048.00;;;;;;5037070;28;20105;-60
2021/03/09 00:28:30;;;;;;;28.75;16.40;;;51.90;2048.00;;;;;;5018628;28;20042;-62
2021/03/09 00:30:56;;;;;;;29.15;16.83;;;51.90;2073.60;;;;;;5037162;28;20018;-60
2021/03/09 00:33:21;;;;;;;28.13;16.23;;;51.80;2073.60;;;;;;5037155;28;20045;-64
2021/03/09 00:35:47;;;;;;;29.15;15.70;;;51.80;2073.60;;;;;;5037235;28;20100;-62
2021/03/09 00:38:13;;;;;;;28.98;16.30;;;51.80;2099.20;;;;;;5037319;28;20041;-64
2021/03/09 00:40:38;;;;;;;32.08;17.52;;;51.70;2073.60;;;;;;5036871;28;20449;-62
2021/03/09 00:43:04;;;;;;;31.52;17.05;;;51.70;2099.20;;;;;;5036855;28;20039;-61
2021/03/09 00:45:30;;;;;;;32.38;17.30;;;51.60;2099.20;;;;;;5019052;28;20072;-60
2021/03/09 00:47:55;;;;;;;27.23;14.57;;;51.60;2099.20;;;;;;5036593;28;20075;-61
2021/03/09 00:50:21;;;;;;;25.98;14.77;;;51.60;2124.80;;;;;;5037140;28;20044;-60
2021/03/09 00:52:47;;;;;;;26.42;14.60;;;51.60;2124.80;;;;;;5036973;28;20034;-63
2021/03/09 00:55:13;;;;;;;26.67;14.93;;;51.60;2124.80;;;;;;5036847;28;20378;-61
2021/03/09 00:57:39;;;;;;;26.30;14.90;;;51.50;2124.80;;;;;;5036363;28;20025;-59
2021/03/09 01:00:05;;;;;;;33.00;16.73;;;51.50;2150.40;;;;;;5036607;28;20061;-59
2021/03/09 01:02:31;;;;;;;27.95;15.38;;;51.50;2124.80;;;;;;5036191;28;20041;-60
2021/03/09 01:04:57;;;;;;;29.52;16.02;;;51.50;2150.40;;;;;;5036744;28;20032;-61
2021/03/09 01:07:23;;;;;;;26.55;14.73;;;51.40;2150.40;;;;;;5036571;28;20055;-60
2021/03/09 01:09:48;;;;;;;23.55;12.90;;;51.40;2150.40;;;;;;5036194;28;20415;-61
2021/03/09 01:12:14;;;;;;;27.60;15.98;;;51.40;2150.40;;;;;;5018535;28;20104;-59
2021/03/09 01:14:40;;;;;;;27.58;16.20;;;51.40;2150.40;;;;;;5036422;28;20036;-61
2021/03/09 01:17:06;;;;;;;28.02;15.85;;;51.40;2150.40;;;;;;5036380;28;20022;-59
2021/03/09 01:19:31;;;;;;;25.90;15.68;;;51.30;2150.40;;;;;;5036337;28;20052;-60
2021/03/09 01:21:57;;;;;;;25.63;14.60;;;51.30;2150.40;;;;;;5036518;28;20432;-63
2021/03/09 01:24:23;;;;;;;26.60;15.63;;;51.30;2176.00;;;;;;5036449;28;20064;-66
2021/03/09 01:26:49;;;;;;;26.88;15.15;;;51.30;2150.40;;;;;;5036500;28;20083;-67
2021/03/09 01:29:14;;;;;;;25.38;14.52;;;51.30;2150.40;;;;;;5018252;28;20033;-69
2021/03/09 01:31:40;;;;;;;31.42;16.40;;;51.20;2176.00;;;;;;5036159;28;20025;-65
2021/03/09 01:34:05;;;;;;;29.23;15.63;;;51.20;2176.00;;;;;;5035672;28;20444;-62
2021/03/09 01:36:32;;;;;;;29.55;15.48;;;51.20;2176.00;;;;;;5035055;28;20119;-62
2021/03/09 01:38:58;;;;;;;29.52;15.50;;;51.20;2176.00;;;;;;5035786;28;20391;-62
2021/03/09 01:41:24;;;;;;;26.33;15.60;;;26.50;2150.40;;;;;;5036245;28;20045;-61
2021/03/09 01:43:50;;;;;;;29.35;16.88;;;26.50;2150.40;;;;;;5045222;28;20425;-62
2021/03/09 01:46:17;;;;;;;33.40;19.95;;;26.50;2150.40;;;;;;5044826;28;20021;-62
2021/03/09 01:48:47;;;;;;;35.55;20.33;;;26.50;2176.00;;;;;;5041208;28;20064;-61
2021/03/09 01:51:19;;;;;;;36.40;22.40;;;26.50;2176.00;;;;;;5044459;28;20027;-64
2021/03/09 01:53:46;;;;;;;35.97;22.20;;;26.40;2176.00;;;;;;5040556;28;20031;-64
2021/03/09 01:56:12;;;;;;;32.60;18.25;;;26.40;2176.00;;;;;;5045551;28;20373;-63
2021/03/09 01:58:47;;;;;;;24.92;14.20;;;26.40;2176.00;;;;;;5045553;28;20018;-64
2021/03/09 02:01:13;;;;;;;27.10;13.75;;;26.40;2176.00;;;;;;5041780;28;20041;-61
2021/03/09 02:03:39;;;;;;;25.05;14.13;;;26.40;2176.00;;;;;;5043498;28;20124;-61
2021/03/09 02:06:05;;;;;;;22.95;12.95;;;26.40;2176.00;;;;;;5044987;28;20184;-60
2021/03/09 02:08:32;;;;;;;21.95;12.65;;;26.30;2176.00;;;;;;5046493;28;20021;-60
2021/03/09 02:10:58;;;;;;;23.95;11.75;;;26.30;2176.00;;;;;;5055602;28;20091;-60
2021/03/09 02:13:56;;;;;;;22.63;12.23;;;26.20;2176.00;;;;;;5055313;28;20493;-60
2021/03/09 02:16:38;;;;;;;22.75;12.18;;;26.10;2176.00;;;;;;5055281;28;20031;-60
2021/03/09 02:19:41;;;;;;;22.42;11.70;;;26.00;2201.60;;;;;;5055290;28;20534;-62
2021/03/09 02:23:04;;;;;;;21.27;11.82;;;26.00;2201.60;;;;;;5055301;28;20104;-61
2021/03/09 02:25:54;;;;;;;22.07;12.27;;;25.90;2201.60;;;;;;4955116;29;20128;-61
2021/03/09 02:28:46;;;;;;;23.77;12.10;;;25.90;2201.60;;;;;;4955142;29;20360;-61
2021/03/09 02:31:12;;;;;;;21.88;12.10;;;25.80;2201.60;;;;;;4954224;29;20039;-61
2021/03/09 02:33:46;;;;;;;23.60;13.13;;;25.70;2201.60;;;;;;4953506;29;20027;-61
2021/03/09 02:36:19;;;;;;;23.63;12.85;;;25.70;2201.60;;;;;;4954822;29;20042;-60
2021/03/09 02:39:10;;;;;;;23.55;13.40;;;25.60;2201.60;;;;;;4954892;29;20031;-64
2021/03/09 02:41:47;;;;;;;23.73;12.60;;;25.60;2201.60;;;;;;4879011;29;20041;-63
2021/03/09 02:44:21;;;;;;;26.30;13.45;;;0.90;2201.60;;;;;;4878417;29;20169;-62
2021/03/09 02:46:49;;;;;;;24.25;12.65;;;0.80;2201.60;;;;;;4878038;29;20506;-60
2021/03/09 02:49:15;;;;;;;21.08;11.65;;;0.80;2201.60;;;;;;4877527;29;20033;-61
2021/03/09 02:51:43;;;;;;;24.02;13.38;;;0.80;2201.60;;;;;;4877931;29;20032;-62
2021/03/09 02:54:10;;;;;;;24.92;13.20;;;0.80;2201.60;;;;;;4878002;29;20404;-61
2021/03/09 02:56:41;;;;;;;24.55;12.40;;;0.80;2201.60;;;;;;4932923;29;20046;-60
2021/03/09 02:59:12;;;;;;;24.90;12.10;;;0.80;2201.60;;;;;;4952602;28;20405;-60
2021/03/09 03:01:40;;;;;;;24.33;12.30;;;0.80;2201.60;;;;;;4953017;29;20179;-60
2021/03/09 03:04:09;;;;;;;26.38;12.25;;;0.80;2201.60;;;;;;4948668;29;20477;-60
2021/03/09 03:06:37;;;;;;;22.83;11.77;;;0.80;2201.60;;;;;;4935217;29;20094;-60
2021/03/09 03:09:03;;;;;;;22.85;12.63;;;0.90;2201.60;;;;;;4934978;29;20485;-60
2021/03/09 03:11:30;;;;;;;24.55;11.90;;;25.60;2201.60;;;;;;4934862;29;20039;-60
2021/03/09 03:13:57;;;;;;;24.27;12.35;;;25.70;2201.60;;;;;;4935181;29;20519;-60
2021/03/09 03:16:26;;;;;;;24.50;12.48;;;25.80;2201.60;;;;;;4934927;29;20375;-60
2021/03/09 03:18:53;;;;;;;21.77;11.77;;;25.80;2201.60;;;;;;4998508;28;20036;-60
2021/03/09 03:21:19;;;;;;;20.92;11.20;;;25.80;2201.60;;;;;;5034079;28;20088;-60
2021/03/09 03:23:45;;;;;;;22.70;11.57;;;25.90;2201.60;;;;;;5034090;28;20034;-61
2021/03/09 03:26:12;;;;;;;23.45;12.18;;;25.90;2201.60;;;;;;5034249;28;20121;-60
2021/03/09 03:28:40;;;;;;;19.48;11.07;;;26.00;2176.00;;;;;;5034003;28;20093;-60
2021/03/09 03:31:07;;;;;;;24.27;12.57;;;26.10;2176.00;;;;;;5034229;28;20025;-61
2021/03/09 03:33:33;;;;;;;21.52;11.77;;;26.10;2176.00;;;;;;5033967;28;20037;-60
2021/03/09 03:36:06;;;;;;;25.95;13.02;;;26.20;2150.40;;;;;;5033969;28;20029;-60
2021/03/09 03:38:39;;;;;;;22.63;12.05;;;26.30;2150.40;;;;;;5034085;28;20086;-60
2021/03/09 03:41:06;;;;;;;21.90;12.00;;;26.30;2150.40;;;;;;5034013;28;20029;-60
2021/03/09 03:43:33;;;;;;;25.50;13.55;;;26.30;2150.40;;;;;;5033780;28;20041;-60
2021/03/09 03:45:59;;;;;;;26.15;14.13;;;26.20;2176.00;;;;;;5033707;28;20406;-60
2021/03/09 03:48:25;;;;;;;22.38;12.23;;;26.30;2176.00;;;;;;5034106;28;20025;-60
2021/03/09 03:50:53;;;;;;;24.10;12.63;;;26.40;2176.00;;;;;;5034070;28;20033;-60
2021/03/09 03:53:42;;;;;;;18.95;11.05;;;26.30;2150.40;;;;;;5033934;28;20022;-60
2021/03/09 03:56:39;;;;;;;19.75;11.07;;;26.30;2176.00;;;;;;5025550;28;20029;-60
2021/03/09 03:59:13;;;;;;;21.83;11.15;;;26.20;2176.00;;;;;;5033179;28;20029;-60
2021/03/09 04:01:41;;;;;;;22.20;12.27;;;26.30;2176.00;;;;;;5033396;28;20033;-61
2021/03/09 04:04:12;;;;;;;20.40;11.57;;;26.30;2150.40;;;;;;5033695;28;20406;-61
2021/03/09 04:06:43;;;;;;;23.42;12.20;;;26.20;2176.00;;;;;;5033539;28;20021;-61
2021/03/09 04:09:11;;;;;;;20.42;12.00;;;26.10;2176.00;;;;;;5033598;28;20175;-60
2021/03/09 04:11:39;;;;;;;21.42;11.15;;;26.20;2201.60;;;;;;5033635;28;20053;-61
2021/03/09 04:14:06;;;;;;;22.35;11.82;;;26.10;2176.00;;;;;;5033494;28;20029;-60
2021/03/09 04:16:34;;;;;;;20.42;10.98;;;26.20;2176.00;;;;;;5033588;28;20375;-60
2021/03/09 04:19:02;;;;;;;20.65;11.52;;;26.10;2176.00;;;;;;5033490;28;20072;-60
2021/03/09 04:21:28;;;;;;;20.80;11.48;;;26.00;2176.00;;;;;;5033408;28;20054;-61
2021/03/09 04:23:55;;;;;;;21.17;11.57;;;26.00;2201.60;;;;;;5033217;28;20041;-60
2021/03/09 04:26:22;;;;;;;20.15;11.38;;;26.00;2201.60;;;;;;5033222;28;20032;-60
2021/03/09 04:28:51;;;;;;;21.90;11.43;;;26.00;2201.60;;;;;;5033231;28;20082;-60
2021/03/09 04:31:18;;;;;;;22.98;12.68;;;25.90;2201.60;;;;;;5033490;28;20036;-60
2021/03/09 04:33:46;;;;;;;25.08;13.48;;;25.90;2201.60;;;;;;5033513;28;20382;-60
2021/03/09 04:36:13;;;;;;;25.05;13.35;;;25.90;2201.60;;;;;;5033494;28;20036;-61
2021/03/09 04:38:39;;;;;;;28.33;14.55;;;25.90;2201.60;;;;;;5032962;28;20022;-60
2021/03/09 04:41:05;;;;;;;40.72;19.90;;;25.90;2201.60;;;;;;5033110;28;20501;-60
2021/03/09 04:43:33;;;;;;;41.42;21.00;;;25.90;2201.60;;;;;;5032530;28;20087;-63
2021/03/09 04:46:01;;;;;;;36.47;19.67;;;25.90;2201.60;;;;;;5033281;28;20030;-60
2021/03/09 04:48:27;;;;;;;37.55;19.17;;;25.80;2201.60;;;;;;5033252;28;20160;-60
2021/03/09 04:51:06;;;;;;;32.95;19.45;;;25.80;2201.60;;;;;;5033002;28;20502;-61
2021/03/09 04:53:33;;;;;;;30.98;17.55;;;25.80;2201.60;;;;;;5033042;28;20024;-60
2021/03/09 04:55:59;;;;;;;34.50;18.80;;;25.70;2201.60;;;;;;5033089;28;20040;-60
2021/03/09 04:58:26;;;;;;;30.33;16.98;;;25.70;2201.60;;;;;;5033187;28;20028;-60
2021/03/09 05:00:52;;;;;;;26.67;14.02;;;25.60;2201.60;;;;;;5033014;28;20054;-60
2021/03/09 05:03:18;;;;;;;24.67;13.93;;;25.60;2201.60;;;;;;5032975;28;20037;-61
2021/03/09 05:05:44;;;;;;;22.77;12.35;;;25.60;2201.60;;;;;;5033316;28;20100;-60
2021/03/09 05:08:10;;;;;;;25.80;13.20;;;25.60;2201.60;;;;;;5032954;28;20531;-61
2021/03/09 05:10:35;;;;;;;24.10;12.30;;;0.90;2201.60;;;;;;5034452;28;20041;-61
2021/03/09 05:13:01;;;;;;;19.27;10.65;;;0.80;2201.60;;;;;;5037227;28;20034;-60
2021/03/09 05:15:27;;;;;;;19.85;10.80;;;0.80;2201.60;;;;;;5036958;28;20030;-61
2021/03/09 05:17:53;;;;;;;21.10;10.63;;;0.80;2201.60;;;;;;5036682;28;20530;-61
2021/03/09 05:20:18;;;;;;;20.42;11.05;;;0.60;2201.60;;;;;;5036720;28;20029;-61
2021/03/09 05:22:44;;;;;;;25.00;12.30;;;0.70;2201.60;;;;;;5036331;28;20117;-61
2021/03/09 05:25:13;;;;;;;22.15;12.30;;;0.80;2201.60;;;;;;5036152;28;20033;-61
2021/03/09 05:27:43;;;;;;;20.88;11.95;;;0.80;2201.60;;;;;;5036020;28;20462;-61
2021/03/09 05:30:10;;;;;;;21.92;11.82;;;0.90;2201.60;;;;;;5035927;28;20390;-60
2021/03/09 05:32:36;;;;;;;20.25;11.68;;;25.60;2201.60;;;;;;5036226;28;20103;-61
2021/03/09 05:35:03;;;;;;;20.38;11.10;;;25.70;2201.60;;;;;;5036211;28;20450;-61
2021/03/09 05:37:29;;;;;;;21.33;12.13;;;25.80;2176.00;;;;;;5036162;28;20104;-61
2021/03/09 05:39:55;;;;;;;30.60;14.98;;;25.90;2176.00;;;;;;5035555;28;20156;-62
2021/03/09 05:42:21;;;;;;;27.85;15.57;;;26.00;2150.40;;;;;;5016279;28;20072;-61
2021/03/09 05:44:47;;;;;;;33.78;17.05;;;26.10;2150.40;;;;;;5034439;28;20073;-61
2021/03/09 05:47:13;;;;;;;31.77;15.57;;;26.10;2124.80;;;;;;5033650;28;20025;-61
2021/03/09 05:49:39;;;;;;;27.02;13.90;;;26.20;2099.20;;;;;;5033185;28;20037;-62
2021/03/09 05:52:05;;;;;;;34.10;17.90;;;26.30;2099.20;;;;;;5032920;28;20102;-62
2021/03/09 05:54:31;;;;;;;33.83;18.05;;;26.50;2099.20;;;;;;5032968;28;20033;-62
2021/03/09 05:56:56;;;;;;;33.83;17.77;;;51.20;2099.20;;;;;;5034001;28;20028;-62
2021/03/09 05:59:23;;;;;;;23.40;13.10;;;51.30;2099.20;;;;;;5034924;28;20517;-62
2021/03/09 06:01:49;;;;;;;22.63;12.07;;;51.50;2073.60;;;;;;5035580;28;20101;-61
2021/03/09 06:04:15;;;;;;;20.67;11.60;;;51.50;2073.60;;;;;;5035521;28;20040;-62
2021/03/09 06:06:41;;;;;;;23.17;13.07;;;51.60;2073.60;;;;;;5035767;28;20036;-61
2021/03/09 06:09:42;;;;;;;25.60;13.32;;;51.80;2048.00;;;;;;5035636;28;20108;-62
2021/03/09 06:12:12;;;;;;;21.90;12.45;;;51.90;2022.40;;;;;;4993979;28;20110;-62
2021/03/09 06:14:41;;;;;;;21.77;12.35;;;51.90;1996.80;;;;;;4993326;28;20030;-62
2021/03/09 06:17:11;;;;;;;24.48;12.93;;;51.90;2022.40;;;;;;4993989;28;20586;-61
2021/03/09 06:19:44;;;;;;;26.55;13.15;;;51.90;1996.80;;;;;;4993603;28;20041;-61
2021/03/09 06:22:11;;;;;;;28.90;13.75;;;52.00;2022.40;;;;;;4993325;28;20045;-62
2021/03/09 06:24:38;;;;;;;23.13;11.77;;;76.80;2022.40;;;;;;4993606;28;20069;-62
2021/03/09 06:27:22;;;;;;;24.70;13.20;;;76.80;1996.80;;;;;;4993696;28;20036;-61
2021/03/09 06:29:47;;;;;;;26.77;14.52;;;77.00;1945.60;;;;;;4993482;28;20027;-61
2021/03/09 06:32:13;;;;;;;22.10;12.80;;;77.00;1920.00;;;;;;4993475;28;20468;-61
2021/03/09 06:34:39;;;;;;;23.70;13.70;;;77.00;1920.00;;;;;;4993093;28;20583;-61
2021/03/09 06:37:37;;;;;;;22.00;12.88;;;77.00;1894.40;;;;;;4993490;28;20065;-61
2021/03/09 06:40:10;;;;;;;21.38;12.00;;;77.10;1894.40;;;;;;4935496;29;20094;-62
2021/03/09 06:42:37;;;;;;;20.30;12.20;;;77.30;1868.80;;;;;;4935561;28;20051;-62
2021/03/09 06:45:10;;;;;;;20.10;12.05;;;77.40;1843.20;;;;;;4938171;28;20032;-61
2021/03/09 06:47:44;;;;;;;22.52;13.77;;;77.50;1817.60;;;;;;4973650;28;20027;-62
2021/03/09 06:50:10;;;;;;;28.50;16.58;;;77.60;1817.60;;;;;;4973150;28;20035;-61
2021/03/09 06:52:37;;;;;;;26.80;15.82;;;77.70;1792.00;;;;;;4973084;28;20113;-61
2021/03/09 06:55:04;;;;;;;25.02;15.20;;;102.40;1766.40;;;;;;4972552;28;20022;-61
2021/03/09 06:57:30;;;;;;;21.83;13.48;;;102.60;1740.80;;;;;;4972400;28;20080;-61
2021/03/09 06:59:56;;;;;;;18.58;11.00;;;102.70;1715.20;;;;;;4973167;28;20075;-62
2021/03/09 07:02:24;;;;;;;20.77;11.25;;;102.70;1689.60;;;;;;4971956;28;20031;-62
2021/03/09 07:04:54;;;;;;;20.08;12.07;;;102.70;1689.60;;;;;;4972801;28;20038;-61
2021/03/09 07:07:40;;;;;;;19.77;10.98;;;102.70;1740.80;;;;;;4972969;28;20469;-60
2021/03/09 07:10:12;;;;;;;18.90;11.38;;;102.80;1689.60;;;;;;4972625;28;20062;-60
2021/03/09 07:12:43;;;;;;;22.33;12.77;;;102.80;1664.00;;;;;;4972274;28;20038;-60
2021/03/09 07:15:11;;;;;;;19.10;11.15;;;103.00;1638.40;;;;;;4990359;28;20060;-60
2021/03/09 07:17:38;;;;;;;22.40;11.77;;;103.20;1638.40;;;;;;5033881;28;20174;-60
2021/03/09 07:20:08;;;;;;;23.05;12.27;;;128.40;1612.80;;;;;;5033631;28;20052;-60
2021/03/09 07:22:36;;;;;;;17.42;10.98;;;128.90;1561.60;;;;;;5033205;28;20478;-60
2021/03/09 07:25:13;;;;;;;20.27;12.05;;;154.10;1459.20;;;;;;5033841;28;20068;-60
2021/03/09 07:27:57;;;;;;;14.80;10.00;;;154.40;1433.60;;;;;;5033131;28;20109;-62
2021/03/09 07:30:26;;;;;;;16.85;9.18;;;154.30;1408.00;;;;;;5031269;28;20112;-60
2021/03/09 07:32:54;;;;;;;15.57;8.15;;;154.50;1382.40;;;;;;5033083;28;20451;-61
2021/03/09 07:35:21;;;;;;;17.10;8.68;;;179.20;1356.80;;;;;;5032423;28;20029;-63
2021/03/09 07:37:48;;;;;;;12.80;8.02;;;154.40;1356.80;;;;;;5033384;28;20037;-61
2021/03/09 07:40:17;;;;;;;20.02;12.13;;;154.40;1356.80;;;;;;5032749;28;20028;-61
2021/03/09 07:42:43;;;;;;;17.40;9.02;;;154.30;1382.40;;;;;;5047851;28;20037;-61
2021/03/09 07:45:15;;;;;;;15.68;8.60;;;154.40;1356.80;;;;;;5032495;28;20502;-61
2021/03/09 07:47:57;;;;;;;18.92;9.75;;;179.20;1356.80;;;;;;5032201;28;20439;-60
2021/03/09 07:50:24;;;;;;;17.73;9.48;;;179.30;1356.80;;;;;;5032452;28;20499;-60
2021/03/09 07:52:59;;;;;;;26.88;12.40;;;179.30;1305.60;;;;;;5033895;28;20086;-60
2021/03/09 07:55:26;;;;;;;13.38;8.30;;;179.40;1305.60;;;;;;5033001;28;20021;-60
2021/03/09 07:58:18;;;;;;;14.88;8.20;;;179.60;1280.00;;;;;;5033190;28;20463;-61
2021/03/09 08:00:52;;;;;;;14.90;9.18;;;179.80;1280.00;;;;;;5033465;28;20056;-62
2021/03/09 08:03:38;;;;;;;57.35;26.33;;;179.80;1280.00;;;;;;5033475;28;20101;-62
2021/03/09 08:06:11;;;;;;;18.60;10.13;;;180.00;1254.40;;;;;;5033855;28;20390;-62
2021/03/09 08:08:43;;;;;;;38.50;19.95;;;205.00;1228.80;;;;;;5033672;28;20028;-62
2021/03/09 08:11:24;;;;;;;21.85;11.07;;;205.30;1203.20;;;;;;5033883;28;20041;-62
2021/03/09 08:14:05;;;;;;;40.42;21.45;;;205.40;1177.60;;;;;;5033659;28;20022;-62
2021/03/09 08:16:38;;;;;;;32.97;19.10;;;205.40;1152.00;;;;;;5033405;28;20030;-62
2021/03/09 08:19:31;;;;;;;12.07;7.03;;;205.30;1152.00;;;;;;5033381;28;20025;-62
2021/03/09 08:22:01;;;;;;;12.50;7.18;;;205.50;1126.40;;;;;;5029391;28;20046;-62
2021/03/09 08:24:41;;;;;;;11.05;7.38;;;230.40;1100.80;;;;;;5032036;28;20495;-62
2021/03/09 08:27:30;;;;;;;11.80;6.93;;;230.90;1075.20;;;;;;5032078;28;20414;-62
2021/03/09 08:30:05;;;;;;;10.10;6.15;;;230.90;1049.60;;;;;;5032855;28;20026;-62
2021/03/09 08:32:31;;;;;;;11.05;6.80;;;230.80;1024.00;;;;;;5031733;28;20163;-62
2021/03/09 08:35:12;;;;;;;12.38;7.72;;;230.60;1049.60;;;;;;5032015;28;20017;-62
2021/03/09 08:37:45;;;;;;;26.50;11.38;;;230.70;1075.20;;;;;;5032474;28;20021;-62
2021/03/09 08:40:14;;;;;;;72.03;20.45;;;230.60;1049.60;;;;;;5032154;28;20026;-61
2021/03/09 08:43:01;;;;;;;25.27;10.25;;;230.40;1049.60;;;;;;5031408;28;20077;-61
2021/03/09 08:45:33;;;;;;;10.73;6.22;;;205.70;1049.60;;;;;;5034354;28;20057;-62
2021/03/09 08:47:59;;;;;;;10.15;5.90;;;230.50;1049.60;;;;;;5036224;28;20025;-61
2021/03/09 08:50:41;;;;;;;16.35;7.50;;;230.60;1024.00;;;;;;5036769;28;20379;-62
2021/03/09 08:53:26;;;;;;;10.48;5.88;;;230.80;1024.00;;;;;;5034600;28;20100;-62
2021/03/09 08:56:00;;;;;;;9.85;5.95;;;231.20;972.80;;;;;;5034412;28;20502;-61
2021/03/09 08:58:27;;;;;;;9.13;6.13;;;256.00;947.20;;;;;;5035503;28;20071;-62
2021/03/09 09:00:53;;;;;;;11.15;5.93;;;256.20;921.60;;;;;;5036521;28;20499;-69
2021/03/09 09:03:39;;;;;;;11.35;6.03;;;281.60;896.00;;;;;;5036491;28;20040;-71
2021/03/09 09:06:05;;;;;;;11.50;7.22;;;256.90;870.40;;;;;;5037002;28;20036;-71
2021/03/09 09:08:32;;;;;;;15.50;8.30;;;256.80;870.40;;;;;;5036843;28;20096;-71
2021/03/09 09:10:58;;;;;;;12.98;6.93;;;281.70;896.00;;;;;;5036620;28;20025;-70
2021/03/09 09:13:32;;;;;;;20.98;10.45;;;282.00;870.40;;;;;;5036137;28;20022;-71
2021/03/09 09:15:58;;;;;;;37.45;14.32;;;282.20;870.40;;;;;;5036768;28;20417;-72
2021/03/09 09:18:24;;;;;;;24.55;10.40;;;307.90;793.60;;;;;;5036453;28;20474;-73
2021/03/09 09:20:52;;;;;;;60.50;17.33;;;333.20;793.60;;;;;;5036623;28;20060;-75
2021/03/09 09:23:20;;;;;;;30.73;10.82;;;333.00;793.60;;;;;;5036409;28;20041;-75
2021/03/09 09:25:51;;;;;;;18.10;8.13;;;308.00;793.60;;;;;;5036353;28;20101;-75
2021/03/09 09:28:30;;;;;;;15.93;7.32;;;307.50;819.20;;;;;;5036272;28;20482;-73
2021/03/09 09:31:04;;;;;;;94.45;24.55;;;307.70;819.20;;;;;;5035160;28;20375;-74
2021/03/09 09:33:30;;;;;;;44.17;12.27;;;307.30;819.20;;;;;;5036385;28;20025;-73
2021/03/09 09:35:57;;;;;;;41.67;13.48;;;307.20;819.20;;;;;;5036043;28;20590;-72
2021/03/09 09:38:22;;;;;;;47.42;17.17;;;333.00;793.60;;;;;;5036115;28;20036;-77
2021/03/09 09:40:54;;;;;;;15.85;12.02;;;359.20;691.20;;;;;;5036075;28;20026;-72
2021/03/09 09:43:22;;;;;;;17.20;8.18;;;410.00;665.60;;;;;;5035738;28;20041;-69
2021/03/09 09:45:55;;;;;;;17.00;9.07;;;460.90;588.80;;;;;;5018069;28;20138;-73
2021/03/09 09:48:30;;;;;;;13.25;9.65;;;486.50;537.60;;;;;;5033415;28;22051;-64
2021/03/09 09:50:59;;;;;;;39.97;14.77;;;512.10;486.40;;;;;;5034451;28;20033;-66
2021/03/09 09:53:36;;;;;;;92.85;54.85;;;512.80;409.60;;;;;;5054866;28;20048;-63
2021/03/09 09:56:04;;;;;;;57.85;37.47;;;538.10;435.20;;;;;;5049561;28;20036;-63
2021/03/09 09:59:02;;;;;;;12.70;8.48;;;563.20;435.20;;;;;;5035596;28;20026;-61
2021/03/09 10:01:36;;;;;;;9.20;6.32;;;537.60;435.20;;;;;;4974184;28;20061;-73
2021/03/09 10:04:07;;;;;;;10.95;7.97;;;537.90;435.20;;;;;;4973492;28;20481;-63
2021/03/09 10:06:41;;;;;;;11.75;9.32;;;512.80;409.60;;;;;;4974048;28;20165;-61
2021/03/09 10:09:16;;;;;;;12.53;9.23;;;512.80;409.60;;;;;;4954999;28;20118;-62
2021/03/09 10:11:59;;;;;;;16.77;12.70;;;512.80;409.60;;;;;;4973871;28;20360;-71
2021/03/09 10:14:32;;;;;;;15.40;11.52;;;512.90;409.60;;;;;;4973969;28;20038;-65
2021/03/09 10:16:59;;;;;;;10.52;7.43;;;512.10;435.20;;;;;;4970158;28;20396;-65
2021/03/09 10:19:35;;;;;;;24.80;17.50;;;486.60;486.40;;;;;;4951397;28;20050;-59
2021/03/09 10:22:01;;;;;;;12.38;8.73;;;461.50;512.00;;;;;;4952228;28;20023;-59
2021/03/09 10:24:31;;;;;;;11.25;7.30;;;436.10;537.60;;;;;;4953349;28;20048;-58
2021/03/09 10:27:01;;;;;;;10.70;8.10;;;410.30;588.80;;;;;;4953761;29;20141;-58
2021/03/09 10:29:29;;;;;;;9.77;6.78;;;410.30;588.80;;;;;;4953504;29;20107;-60
2021/03/09 10:32:02;;;;;;;10.23;7.53;;;384.80;614.40;;;;;;4953803;29;20058;-58
2021/03/09 10:34:38;;;;;;;17.50;12.38;;;384.90;614.40;;;;;;4953943;29;20426;-61
2021/03/09 10:37:04;;;;;;;13.82;9.77;;;409.60;640.00;;;;;;4965615;28;20130;-61
2021/03/09 10:39:32;;;;;;;12.77;8.80;;;410.40;640.00;;;;;;5033937;28;20478;-61
2021/03/09 10:42:18;;;;;;;11.95;7.80;;;435.50;588.80;;;;;;5033834;28;20471;-58
2021/03/09 10:44:44;;;;;;;13.10;8.98;;;461.50;563.20;;;;;;5033581;28;20029;-59
2021/03/09 10:47:12;;;;;;;9.90;7.20;;;487.20;486.40;;;;;;5032427;28;20108;-58
2021/03/09 10:49:38;;;;;;;11.27;8.27;;;486.70;486.40;;;;;;5038076;28;20068;-59
2021/03/09 10:52:05;;;;;;;11.77;9.27;;;537.80;460.80;;;;;;5040174;28;20029;-58
2021/03/09 10:54:32;;;;;;;11.02;8.55;;;563.80;409.60;;;;;;5032005;28;20475;-63
2021/03/09 10:56:58;;;;;;;11.85;9.60;;;614.40;358.40;;;;;;5040285;28;20029;-63
2021/03/09 10:59:24;;;;;;;14.23;9.10;;;614.60;332.80;;;;;;5032840;28;20041;-60
2021/03/09 11:01:50;;;;;;;12.55;7.72;;;614.90;307.20;;;;;;5033727;28;20068;-60
2021/03/09 11:04:16;;;;;;;22.35;15.85;;;615.00;307.20;;;;;;5032437;28;20045;-62
2021/03/09 11:06:42;;;;;;;19.88;15.25;;;615.30;281.60;;;;;;5033633;28;20032;-60
2021/03/09 11:09:08;;;;;;;47.88;27.50;;;640.10;281.60;;;;;;5033123;28;20029;-59
2021/03/09 11:11:33;;;;;;;55.40;29.58;;;640.90;281.60;;;;;;5043935;28;20045;-61
2021/03/09 11:13:59;;;;;;;111.60;60.92;;;665.70;256.00;;;;;;5041889;28;20352;-62
2021/03/09 11:16:25;;;;;;;13.07;9.77;;;640.90;256.00;;;;;;5043008;28;20032;-59
2021/03/09 11:18:51;;;;;;;9.50;7.57;;;640.90;256.00;;;;;;5043362;28;20075;-59
2021/03/09 11:21:16;;;;;;;10.50;8.70;;;640.10;256.00;;;;;;5041776;28;20025;-59
2021/03/09 11:23:44;;;;;;;11.48;8.35;;;589.30;332.80;;;;;;5043342;28;20033;-60
2021/03/09 11:26:10;;;;;;;15.02;9.23;;;589.30;358.40;;;;;;5042836;28;20025;-59
2021/03/09 11:28:36;;;;;;;10.70;8.90;;;615.00;307.20;;;;;;5053397;28;20466;-59
2021/03/09 11:31:02;;;;;;;9.30;7.68;;;614.40;307.20;;;;;;5049462;28;20022;-59
2021/03/09 11:33:28;;;;;;;12.48;8.57;;;589.30;307.20;;;;;;5043111;28;20032;-60
2021/03/09 11:35:53;;;;;;;12.07;9.63;;;614.70;281.60;;;;;;5042382;28;20021;-60
2021/03/09 11:38:20;;;;;;;10.57;8.50;;;614.80;307.20;;;;;;5044328;28;20493;-60
2021/03/09 11:40:46;;;;;;;11.48;8.98;;;640.80;256.00;;;;;;5038472;28;20029;-60
2021/03/09 11:43:12;;;;;;;8.50;7.30;;;665.60;281.60;;;;;;5045054;28;20037;-60
2021/03/09 11:45:38;;;;;;;9.65;7.97;;;589.40;307.20;;;;;;5036186;28;20615;-61
2021/03/09 11:48:04;;;;;;;10.05;7.60;;;614.40;307.20;;;;;;5032300;28;20104;-62
2021/03/09 11:50:30;;;;;;;12.60;9.73;;;589.10;332.80;;;;;;5032488;28;20022;-63
2021/03/09 11:52:55;;;;;;;14.85;11.60;;;589.10;332.80;;;;;;5032260;28;20026;-62
2021/03/09 11:55:21;;;;;;;11.57;9.85;;;588.90;358.40;;;;;;5033096;28;20037;-64
2021/03/09 11:57:47;;;;;;;12.05;8.52;;;564.10;384.00;;;;;;5032660;28;20021;-61
2021/03/09 12:00:13;;;;;;;12.18;9.00;;;564.00;384.00;;;;;;5032422;28;20064;-60
2021/03/09 12:02:39;;;;;;;12.25;9.07;;;563.40;409.60;;;;;;5032905;28;20083;-59
2021/03/09 12:05:05;;;;;;;11.57;9.05;;;538.40;384.00;;;;;;5032559;28;20025;-60
2021/03/09 12:07:31;;;;;;;13.43;10.20;;;563.70;384.00;;;;;;5032881;28;20043;-59
2021/03/09 12:09:57;;;;;;;11.32;8.00;;;563.60;409.60;;;;;;5032975;28;20482;-62
2021/03/09 12:12:23;;;;;;;9.30;7.93;;;538.30;384.00;;;;;;5032536;28;20113;-61
2021/03/09 12:14:48;;;;;;;11.70;7.68;;;538.20;409.60;;;;;;5031040;28;20425;-60
2021/03/09 12:17:14;;;;;;;18.05;12.85;;;512.90;384.00;;;;;;5031675;28;20360;-63
2021/03/09 12:19:40;;;;;;;13.30;10.80;;;512.20;409.60;;;;;;5033275;28;20121;-59
2021/03/09 12:22:07;;;;;;;10.43;7.40;;;538.00;409.60;;;;;;5036746;28;20471;-63
2021/03/09 12:24:33;;;;;;;11.57;7.75;;;512.90;384.00;;;;;;5036533;28;20129;-60